sensor_id;sensor_type;location;lat;lon;timestamp;temperature;humidity
7606;DHT22;3844;53.360;9.738;2023-02-01T00:00:17;4.90;95.70
7606;DHT22;3844;53.360;9.738;2023-02-01T00:02:18;4.90;95.70
7606;DHT22;3844;53.360;9.738;2023-02-01T00:04:18;4.90;95.70
7606;DHT22;3844;53.360;9.738;2023-02-01T00:06:19;5.00;95.70
7606;DHT22;3844;53.360;9.738;2023-02-01T00:08:20;5.00;95.70
7606;DHT22;3844;53.360;9.738;2023-02-01T00:10:21;5.00;95.70
7606;DHT22;3844;53.360;9.738;2023-02-01T00:12:21;5.00;95.70
7606;DHT22;3844;53.360;9.738;2023-02-01T00:14:22;5.00;95.70
7606;DHT22;3844;53.360;9.738;2023-02-01T00:16:28;5.00;95.70
7606;DHT22;3844;53.360;9.738;2023-02-01T00:18:29;5.00;95.70
7606;DHT22;3844;53.360;9.738;2023-02-01T00:20:30;5.00;95.70
7606;DHT22;3844;53.360;9.738;2023-02-01T00:22:30;5.00;95.70
7606;DHT22;3844;53.360;9.738;2023-02-01T00:24:31;5.00;95.70
7606;DHT22;3844;53.360;9.738;2023-02-01T00:26:33;5.00;95.70
7606;DHT22;3844;53.360;9.738;2023-02-01T00:28:34;5.00;95.70
7606;DHT22;3844;53.360;9.738;2023-02-01T00:30:35;5.00;95.70
7606;DHT22;3844;53.360;9.738;2023-02-01T00:32:36;5.00;95.70
7606;DHT22;3844;53.360;9.738;2023-02-01T00:34:37;5.00;95.70
7606;DHT22;3844;53.360;9.738;2023-02-01T00:36:38;5.00;95.70
7606;DHT22;3844;53.360;9.738;2023-02-01T00:38:39;4.90;95.70
7606;DHT22;3844;53.360;9.738;2023-02-01T00:40:40;5.00;95.70
7606;DHT22;3844;53.360;9.738;2023-02-01T00:42:40;4.90;95.70
7606;DHT22;3844;53.360;9.738;2023-02-01T00:44:41;4.90;95.70
7606;DHT22;3844;53.360;9.738;2023-02-01T00:46:42;4.90;95.70
7606;DHT22;3844;53.360;9.738;2023-02-01T00:48:43;5.00;95.70
7606;DHT22;3844;53.360;9.738;2023-02-01T00:50:44;5.00;95.70
7606;DHT22;3844;53.360;9.738;2023-02-01T00:52:45;5.00;95.70
7606;DHT22;3844;53.360;9.738;2023-02-01T00:54:45;5.00;95.70
7606;DHT22;3844;53.360;9.738;2023-02-01T00:56:46;5.00;95.70
7606;DHT22;3844;53.360;9.738;2023-02-01T00:58:47;4.90;95.70
7606;DHT22;3844;53.360;9.738;2023-02-01T01:00:48;5.00;95.70
7606;DHT22;3844;53.360;9.738;2023-02-01T01:02:49;5.00;95.70
7606;DHT22;3844;53.360;9.738;2023-02-01T01:04:50;5.00;95.70
7606;DHT22;3844;53.360;9.738;2023-02-01T01:06:51;5.00;95.70
7606;DHT22;3844;53.360;9.738;2023-02-01T01:08:53;5.00;95.70
7606;DHT22;3844;53.360;9.738;2023-02-01T01:10:54;5.10;95.70
7606;DHT22;3844;53.360;9.738;2023-02-01T01:12:55;5.10;95.70
7606;DHT22;3844;53.360;9.738;2023-02-01T01:14:56;5.10;95.70
7606;DHT22;3844;53.360;9.738;2023-02-01T01:16:56;5.10;95.70
7606;DHT22;3844;53.360;9.738;2023-02-01T01:18:57;5.20;95.70
7606;DHT22;3844;53.360;9.738;2023-02-01T01:20:59;5.20;95.70
7606;DHT22;3844;53.360;9.738;2023-02-01T01:23:00;5.10;95.70
7606;DHT22;3844;53.360;9.738;2023-02-01T01:25:00;5.10;95.70
7606;DHT22;3844;53.360;9.738;2023-02-01T01:27:01;5.10;95.70
7606;DHT22;3844;53.360;9.738;2023-02-01T01:29:02;5.10;95.70
7606;DHT22;3844;53.360;9.738;2023-02-01T01:31:04;5.10;95.70
7606;DHT22;3844;53.360;9.738;2023-02-01T01:33:07;5.10;95.70
7606;DHT22;3844;53.360;9.738;2023-02-01T01:35:08;5.10;95.70
7606;DHT22;3844;53.360;9.738;2023-02-01T01:37:10;5.10;95.70
7606;DHT22;3844;53.360;9.738;2023-02-01T01:39:10;5.10;95.70
7606;DHT22;3844;53.360;9.738;2023-02-01T01:41:20;5.10;95.70
7606;DHT22;3844;53.360;9.738;2023-02-01T01:43:21;5.10;95.70
7606;DHT22;3844;53.360;9.738;2023-02-01T01:45:40;5.10;95.70
7606;DHT22;3844;53.360;9.738;2023-02-01T01:47:44;5.00;95.70
7606;DHT22;3844;53.360;9.738;2023-02-01T01:49:46;5.00;95.70
7606;DHT22;3844;53.360;9.738;2023-02-01T01:51:54;5.00;95.70
7606;DHT22;3844;53.360;9.738;2023-02-01T01:54:14;5.00;95.70
7606;DHT22;3844;53.360;9.738;2023-02-01T01:56:17;5.00;95.70
7606;DHT22;3844;53.360;9.738;2023-02-01T01:58:22;5.00;95.70
7606;DHT22;3844;53.360;9.738;2023-02-01T02:00:24;5.00;95.70
7606;DHT22;3844;53.360;9.738;2023-02-01T02:02:24;5.10;95.70
7606;DHT22;3844;53.360;9.738;2023-02-01T02:04:25;5.10;95.70
7606;DHT22;3844;53.360;9.738;2023-02-01T02:08:33;5.10;95.70
7606;DHT22;3844;53.360;9.738;2023-02-01T02:10:34;5.00;95.70
7606;DHT22;3844;53.360;9.738;2023-02-01T02:12:53;5.00;95.70
7606;DHT22;3844;53.360;9.738;2023-02-01T02:14:54;5.00;95.70
7606;DHT22;3844;53.360;9.738;2023-02-01T02:27:05;4.90;95.70
7606;DHT22;3844;53.360;9.738;2023-02-01T02:43:58;5.00;95.70
7606;DHT22;3844;53.360;9.738;2023-02-01T02:46:28;4.90;95.70
7606;DHT22;3844;53.360;9.738;2023-02-01T02:49:04;4.90;95.70
7606;DHT22;3844;53.360;9.738;2023-02-01T02:53:48;4.90;95.70
7606;DHT22;3844;53.360;9.738;2023-02-01T02:56:11;4.80;95.70
7606;DHT22;3844;53.360;9.738;2023-02-01T02:58:31;4.90;95.70
7606;DHT22;3844;53.360;9.738;2023-02-01T03:00:51;4.90;95.70
7606;DHT22;3844;53.360;9.738;2023-02-01T03:03:11;4.90;95.70
7606;DHT22;3844;53.360;9.738;2023-02-01T03:05:35;5.00;95.70
7606;DHT22;3844;53.360;9.738;2023-02-01T03:10:26;4.90;95.70
7606;DHT22;3844;53.360;9.738;2023-02-01T03:12:28;4.90;95.70
7606;DHT22;3844;53.360;9.738;2023-02-01T03:14:52;4.90;95.70
7606;DHT22;3844;53.360;9.738;2023-02-01T03:17:00;4.80;95.70
7606;DHT22;3844;53.360;9.738;2023-02-01T03:21:10;4.80;95.70
7606;DHT22;3844;53.360;9.738;2023-02-01T03:23:14;4.70;95.70
7606;DHT22;3844;53.360;9.738;2023-02-01T03:25:21;4.70;95.70
7606;DHT22;3844;53.360;9.738;2023-02-01T03:27:34;4.60;95.70
7606;DHT22;3844;53.360;9.738;2023-02-01T03:32:01;4.40;95.70
7606;DHT22;3844;53.360;9.738;2023-02-01T03:34:02;4.30;95.70
7606;DHT22;3844;53.360;9.738;2023-02-01T03:40:33;4.10;95.70
7606;DHT22;3844;53.360;9.738;2023-02-01T03:42:43;4.10;95.70
7606;DHT22;3844;53.360;9.738;2023-02-01T03:44:59;4.00;95.70
7606;DHT22;3844;53.360;9.738;2023-02-01T03:47:06;4.00;95.70
7606;DHT22;3844;53.360;9.738;2023-02-01T03:49:12;3.90;95.70
7606;DHT22;3844;53.360;9.738;2023-02-01T03:51:15;3.90;95.70
7606;DHT22;3844;53.360;9.738;2023-02-01T03:53:22;3.90;95.70
7606;DHT22;3844;53.360;9.738;2023-02-01T03:55:25;3.90;95.70
7606;DHT22;3844;53.360;9.738;2023-02-01T03:57:32;3.90;95.70
7606;DHT22;3844;53.360;9.738;2023-02-01T03:59:34;3.90;95.70
7606;DHT22;3844;53.360;9.738;2023-02-01T04:01:34;3.90;95.70
7606;DHT22;3844;53.360;9.738;2023-02-01T04:03:35;3.90;95.70
7606;DHT22;3844;53.360;9.738;2023-02-01T04:05:36;3.90;95.70
7606;DHT22;3844;53.360;9.738;2023-02-01T04:07:37;3.90;95.70
7606;DHT22;3844;53.360;9.738;2023-02-01T04:09:37;3.90;95.70
7606;DHT22;3844;53.360;9.738;2023-02-01T04:11:38;3.90;95.70
7606;DHT22;3844;53.360;9.738;2023-02-01T04:13:39;3.90;95.70
7606;DHT22;3844;53.360;9.738;2023-02-01T04:15:43;4.00;95.70
7606;DHT22;3844;53.360;9.738;2023-02-01T04:17:44;4.00;95.70
7606;DHT22;3844;53.360;9.738;2023-02-01T04:19:45;4.10;95.70
7606;DHT22;3844;53.360;9.738;2023-02-01T04:21:46;4.10;95.70
7606;DHT22;3844;53.360;9.738;2023-02-01T04:23:46;4.10;95.70
7606;DHT22;3844;53.360;9.738;2023-02-01T04:25:48;4.10;95.70
7606;DHT22;3844;53.360;9.738;2023-02-01T04:27:48;4.10;95.70
7606;DHT22;3844;53.360;9.738;2023-02-01T04:29:49;4.10;95.70
7606;DHT22;3844;53.360;9.738;2023-02-01T04:31:50;4.10;95.70
7606;DHT22;3844;53.360;9.738;2023-02-01T04:33:55;4.10;95.70
7606;DHT22;3844;53.360;9.738;2023-02-01T04:35:57;4.10;95.70
7606;DHT22;3844;53.360;9.738;2023-02-01T04:37:58;4.10;95.70
7606;DHT22;3844;53.360;9.738;2023-02-01T04:39:59;4.10;95.70
7606;DHT22;3844;53.360;9.738;2023-02-01T04:42:00;4.00;95.70
7606;DHT22;3844;53.360;9.738;2023-02-01T04:44:01;4.00;95.70
7606;DHT22;3844;53.360;9.738;2023-02-01T04:46:01;4.00;95.70
7606;DHT22;3844;53.360;9.738;2023-02-01T04:48:02;3.90;95.70
7606;DHT22;3844;53.360;9.738;2023-02-01T04:50:04;3.90;95.70
7606;DHT22;3844;53.360;9.738;2023-02-01T04:52:06;3.90;95.70
7606;DHT22;3844;53.360;9.738;2023-02-01T04:54:07;3.80;95.70
7606;DHT22;3844;53.360;9.738;2023-02-01T04:56:08;3.70;95.70
7606;DHT22;3844;53.360;9.738;2023-02-01T04:58:09;3.70;95.70
7606;DHT22;3844;53.360;9.738;2023-02-01T05:00:10;3.70;95.70
7606;DHT22;3844;53.360;9.738;2023-02-01T05:02:12;3.70;95.70
7606;DHT22;3844;53.360;9.738;2023-02-01T05:04:12;3.60;95.70
7606;DHT22;3844;53.360;9.738;2023-02-01T05:06:13;3.60;95.70
7606;DHT22;3844;53.360;9.738;2023-02-01T05:08:14;3.60;95.70
7606;DHT22;3844;53.360;9.738;2023-02-01T05:10:16;3.70;95.70
7606;DHT22;3844;53.360;9.738;2023-02-01T05:12:16;3.60;95.70
7606;DHT22;3844;53.360;9.738;2023-02-01T05:16:37;3.60;95.70
7606;DHT22;3844;53.360;9.738;2023-02-01T05:18:38;3.70;95.70
7606;DHT22;3844;53.360;9.738;2023-02-01T05:20:38;3.60;95.70
7606;DHT22;3844;53.360;9.738;2023-02-01T05:22:41;3.50;95.70
7606;DHT22;3844;53.360;9.738;2023-02-01T05:24:42;3.50;95.70
7606;DHT22;3844;53.360;9.738;2023-02-01T05:26:43;3.40;95.70
7606;DHT22;3844;53.360;9.738;2023-02-01T05:28:44;3.40;95.70
7606;DHT22;3844;53.360;9.738;2023-02-01T05:30:45;3.30;95.70
7606;DHT22;3844;53.360;9.738;2023-02-01T05:32:48;3.30;95.70
7606;DHT22;3844;53.360;9.738;2023-02-01T05:34:49;3.30;95.70
7606;DHT22;3844;53.360;9.738;2023-02-01T05:36:50;3.20;95.70
7606;DHT22;3844;53.360;9.738;2023-02-01T05:38:52;3.20;95.70
7606;DHT22;3844;53.360;9.738;2023-02-01T05:40:54;3.20;95.70
7606;DHT22;3844;53.360;9.738;2023-02-01T05:42:55;3.10;95.70
7606;DHT22;3844;53.360;9.738;2023-02-01T05:44:55;3.10;95.70
7606;DHT22;3844;53.360;9.738;2023-02-01T05:46:56;3.10;95.70
7606;DHT22;3844;53.360;9.738;2023-02-01T05:48:57;3.10;95.70
7606;DHT22;3844;53.360;9.738;2023-02-01T05:50:58;3.20;95.70
7606;DHT22;3844;53.360;9.738;2023-02-01T05:52:58;3.20;95.70
7606;DHT22;3844;53.360;9.738;2023-02-01T05:54:59;3.20;95.70
7606;DHT22;3844;53.360;9.738;2023-02-01T05:57:00;3.30;95.70
7606;DHT22;3844;53.360;9.738;2023-02-01T05:59:01;3.30;95.70
7606;DHT22;3844;53.360;9.738;2023-02-01T06:01:03;3.30;95.70
7606;DHT22;3844;53.360;9.738;2023-02-01T06:03:04;3.30;95.70
7606;DHT22;3844;53.360;9.738;2023-02-01T06:05:05;3.30;95.70
7606;DHT22;3844;53.360;9.738;2023-02-01T06:07:08;3.30;95.70
7606;DHT22;3844;53.360;9.738;2023-02-01T06:09:09;3.30;95.70
7606;DHT22;3844;53.360;9.738;2023-02-01T06:11:10;3.30;95.70
7606;DHT22;3844;53.360;9.738;2023-02-01T06:13:10;3.30;95.70
7606;DHT22;3844;53.360;9.738;2023-02-01T06:15:12;3.30;95.70
7606;DHT22;3844;53.360;9.738;2023-02-01T06:17:19;3.30;95.70
7606;DHT22;3844;53.360;9.738;2023-02-01T06:19:22;3.40;95.70
7606;DHT22;3844;53.360;9.738;2023-02-01T06:21:25;3.40;95.70
7606;DHT22;3844;53.360;9.738;2023-02-01T06:23:26;3.40;95.70
7606;DHT22;3844;53.360;9.738;2023-02-01T06:25:27;3.40;95.70
7606;DHT22;3844;53.360;9.738;2023-02-01T06:27:28;3.50;95.70
7606;DHT22;3844;53.360;9.738;2023-02-01T06:29:30;3.50;95.70
7606;DHT22;3844;53.360;9.738;2023-02-01T06:31:30;3.50;95.70
7606;DHT22;3844;53.360;9.738;2023-02-01T06:33:33;3.50;95.70
7606;DHT22;3844;53.360;9.738;2023-02-01T06:35:34;3.50;95.70
7606;DHT22;3844;53.360;9.738;2023-02-01T06:37:37;3.50;95.70
7606;DHT22;3844;53.360;9.738;2023-02-01T06:39:37;3.50;95.70
7606;DHT22;3844;53.360;9.738;2023-02-01T06:41:38;3.60;95.70
7606;DHT22;3844;53.360;9.738;2023-02-01T06:43:39;3.50;95.70
7606;DHT22;3844;53.360;9.738;2023-02-01T06:45:40;3.60;95.70
7606;DHT22;3844;53.360;9.738;2023-02-01T06:47:42;3.60;95.70
7606;DHT22;3844;53.360;9.738;2023-02-01T06:49:42;3.60;95.70
7606;DHT22;3844;53.360;9.738;2023-02-01T06:51:43;3.60;95.70
7606;DHT22;3844;53.360;9.738;2023-02-01T06:53:44;3.60;95.70
7606;DHT22;3844;53.360;9.738;2023-02-01T06:55:52;3.60;95.70
7606;DHT22;3844;53.360;9.738;2023-02-01T06:57:54;3.70;95.70
7606;DHT22;3844;53.360;9.738;2023-02-01T06:59:55;3.70;95.70
7606;DHT22;3844;53.360;9.738;2023-02-01T07:01:55;3.70;95.70
7606;DHT22;3844;53.360;9.738;2023-02-01T07:03:56;3.80;95.70
7606;DHT22;3844;53.360;9.738;2023-02-01T07:05:58;3.80;95.70
7606;DHT22;3844;53.360;9.738;2023-02-01T07:07:59;3.90;95.70
7606;DHT22;3844;53.360;9.738;2023-02-01T07:10:00;3.90;95.70
7606;DHT22;3844;53.360;9.738;2023-02-01T07:14:01;4.00;95.70
7606;DHT22;3844;53.360;9.738;2023-02-01T07:16:05;4.10;95.70
7606;DHT22;3844;53.360;9.738;2023-02-01T07:18:06;4.10;95.70
7606;DHT22;3844;53.360;9.738;2023-02-01T07:20:07;4.20;95.70
7606;DHT22;3844;53.360;9.738;2023-02-01T07:22:08;4.20;95.70
7606;DHT22;3844;53.360;9.738;2023-02-01T07:24:09;4.20;95.70
7606;DHT22;3844;53.360;9.738;2023-02-01T07:26:12;4.20;95.70
7606;DHT22;3844;53.360;9.738;2023-02-01T07:28:13;4.20;95.70
7606;DHT22;3844;53.360;9.738;2023-02-01T07:30:14;4.20;95.70
7606;DHT22;3844;53.360;9.738;2023-02-01T07:34:18;4.20;95.70
7606;DHT22;3844;53.360;9.738;2023-02-01T07:36:19;4.20;95.70
7606;DHT22;3844;53.360;9.738;2023-02-01T07:38:20;4.20;95.70
7606;DHT22;3844;53.360;9.738;2023-02-01T07:40:22;4.30;95.70
7606;DHT22;3844;53.360;9.738;2023-02-01T07:42:28;4.30;95.70
7606;DHT22;3844;53.360;9.738;2023-02-01T07:44:29;4.30;95.70
7606;DHT22;3844;53.360;9.738;2023-02-01T07:46:30;4.40;95.70
7606;DHT22;3844;53.360;9.738;2023-02-01T07:48:32;4.40;95.70
7606;DHT22;3844;53.360;9.738;2023-02-01T07:50:34;4.50;95.70
7606;DHT22;3844;53.360;9.738;2023-02-01T07:52:34;4.50;95.70
7606;DHT22;3844;53.360;9.738;2023-02-01T07:54:36;4.50;95.70
7606;DHT22;3844;53.360;9.738;2023-02-01T07:56:37;4.50;95.70
7606;DHT22;3844;53.360;9.738;2023-02-01T07:58:38;4.50;95.70
7606;DHT22;3844;53.360;9.738;2023-02-01T08:00:38;4.50;95.70
7606;DHT22;3844;53.360;9.738;2023-02-01T08:02:58;4.50;95.70
7606;DHT22;3844;53.360;9.738;2023-02-01T08:07:00;4.40;95.70
7606;DHT22;3844;53.360;9.738;2023-02-01T08:09:02;4.40;95.70
7606;DHT22;3844;53.360;9.738;2023-02-01T08:11:04;4.50;95.70
7606;DHT22;3844;53.360;9.738;2023-02-01T08:13:05;4.50;95.70
7606;DHT22;3844;53.360;9.738;2023-02-01T08:15:06;4.50;95.70
7606;DHT22;3844;53.360;9.738;2023-02-01T08:17:07;4.50;95.70
7606;DHT22;3844;53.360;9.738;2023-02-01T08:19:08;4.60;95.70
7606;DHT22;3844;53.360;9.738;2023-02-01T08:21:13;4.60;95.70
7606;DHT22;3844;53.360;9.738;2023-02-01T08:23:14;4.70;95.70
7606;DHT22;3844;53.360;9.738;2023-02-01T08:25:14;4.70;95.70
7606;DHT22;3844;53.360;9.738;2023-02-01T08:27:15;4.70;95.70
7606;DHT22;3844;53.360;9.738;2023-02-01T08:29:16;4.80;95.70
7606;DHT22;3844;53.360;9.738;2023-02-01T08:31:18;4.90;95.70
7606;DHT22;3844;53.360;9.738;2023-02-01T08:33:20;5.00;95.70
7606;DHT22;3844;53.360;9.738;2023-02-01T08:35:22;5.10;95.70
7606;DHT22;3844;53.360;9.738;2023-02-01T08:37:23;5.20;95.70
7606;DHT22;3844;53.360;9.738;2023-02-01T08:39:24;5.20;95.70
7606;DHT22;3844;53.360;9.738;2023-02-01T08:41:28;5.20;95.70
7606;DHT22;3844;53.360;9.738;2023-02-01T08:43:29;5.20;95.70
7606;DHT22;3844;53.360;9.738;2023-02-01T08:45:30;5.20;95.70
7606;DHT22;3844;53.360;9.738;2023-02-01T08:47:31;5.10;95.70
7606;DHT22;3844;53.360;9.738;2023-02-01T08:49:32;5.10;95.70
7606;DHT22;3844;53.360;9.738;2023-02-01T08:51:33;5.10;95.70
7606;DHT22;3844;53.360;9.738;2023-02-01T08:53:34;5.10;95.70
7606;DHT22;3844;53.360;9.738;2023-02-01T08:55:36;5.10;95.70
7606;DHT22;3844;53.360;9.738;2023-02-01T08:57:37;5.10;95.70
7606;DHT22;3844;53.360;9.738;2023-02-01T08:59:40;5.20;95.70
7606;DHT22;3844;53.360;9.738;2023-02-01T09:01:41;5.20;95.70
7606;DHT22;3844;53.360;9.738;2023-02-01T09:03:42;5.30;95.70
7606;DHT22;3844;53.360;9.738;2023-02-01T09:05:43;5.40;95.70
7606;DHT22;3844;53.360;9.738;2023-02-01T09:07:45;5.50;95.70
7606;DHT22;3844;53.360;9.738;2023-02-01T09:09:46;5.60;95.70
7606;DHT22;3844;53.360;9.738;2023-02-01T09:11:47;5.70;95.70
7606;DHT22;3844;53.360;9.738;2023-02-01T09:13:48;5.70;95.70
7606;DHT22;3844;53.360;9.738;2023-02-01T09:15:51;5.70;95.70
7606;DHT22;3844;53.360;9.738;2023-02-01T09:17:52;5.70;95.70
7606;DHT22;3844;53.360;9.738;2023-02-01T09:19:52;5.70;95.70
7606;DHT22;3844;53.360;9.738;2023-02-01T09:21:53;5.70;95.70
7606;DHT22;3844;53.360;9.738;2023-02-01T09:23:54;5.70;95.70
7606;DHT22;3844;53.360;9.738;2023-02-01T09:26:02;5.80;95.70
7606;DHT22;3844;53.360;9.738;2023-02-01T09:28:04;5.80;95.70
7606;DHT22;3844;53.360;9.738;2023-02-01T09:30:06;5.80;95.70
7606;DHT22;3844;53.360;9.738;2023-02-01T09:32:08;5.80;95.70
7606;DHT22;3844;53.360;9.738;2023-02-01T09:34:08;5.80;95.70
7606;DHT22;3844;53.360;9.738;2023-02-01T09:36:09;5.80;95.70
7606;DHT22;3844;53.360;9.738;2023-02-01T09:38:10;5.80;95.70
7606;DHT22;3844;53.360;9.738;2023-02-01T09:40:15;5.80;95.70
7606;DHT22;3844;53.360;9.738;2023-02-01T09:44:40;5.90;95.70
7606;DHT22;3844;53.360;9.738;2023-02-01T09:46:46;6.00;95.70
7606;DHT22;3844;53.360;9.738;2023-02-01T09:48:48;6.10;95.70
7606;DHT22;3844;53.360;9.738;2023-02-01T09:50:56;6.20;95.70
7606;DHT22;3844;53.360;9.738;2023-02-01T09:53:13;6.30;95.70
7606;DHT22;3844;53.360;9.738;2023-02-01T09:57:52;6.20;95.70
7606;DHT22;3844;53.360;9.738;2023-02-01T10:00:13;6.10;95.70
7606;DHT22;3844;53.360;9.738;2023-02-01T10:02:22;6.10;95.70
7606;DHT22;3844;53.360;9.738;2023-02-01T10:04:23;6.10;95.70
7606;DHT22;3844;53.360;9.738;2023-02-01T10:11:03;6.00;95.70
7606;DHT22;3844;53.360;9.738;2023-02-01T10:17:48;6.00;95.70
7606;DHT22;3844;53.360;9.738;2023-02-01T10:20:01;6.10;95.70
7606;DHT22;3844;53.360;9.738;2023-02-01T10:22:09;6.20;95.70
7606;DHT22;3844;53.360;9.738;2023-02-01T10:26:36;6.30;95.70
7606;DHT22;3844;53.360;9.738;2023-02-01T10:28:39;6.40;95.70
7606;DHT22;3844;53.360;9.738;2023-02-01T10:30:46;6.40;95.70
7606;DHT22;3844;53.360;9.738;2023-02-01T10:32:56;6.40;95.70
7606;DHT22;3844;53.360;9.738;2023-02-01T10:34:59;6.50;95.70
7606;DHT22;3844;53.360;9.738;2023-02-01T10:37:18;6.50;95.70
7606;DHT22;3844;53.360;9.738;2023-02-01T10:39:20;6.50;95.70
7606;DHT22;3844;53.360;9.738;2023-02-01T10:41:23;6.50;95.70
7606;DHT22;3844;53.360;9.738;2023-02-01T10:43:25;6.40;95.70
7606;DHT22;3844;53.360;9.738;2023-02-01T10:45:29;6.40;95.70
7606;DHT22;3844;53.360;9.738;2023-02-01T10:47:30;6.30;95.70
7606;DHT22;3844;53.360;9.738;2023-02-01T10:49:40;6.30;95.70
7606;DHT22;3844;53.360;9.738;2023-02-01T10:52:00;6.20;95.70
7606;DHT22;3844;53.360;9.738;2023-02-01T10:54:23;6.20;95.70
7606;DHT22;3844;53.360;9.738;2023-02-01T10:56:37;6.20;95.70
7606;DHT22;3844;53.360;9.738;2023-02-01T10:58:46;6.20;95.70
7606;DHT22;3844;53.360;9.738;2023-02-01T11:00:54;6.20;95.70
7606;DHT22;3844;53.360;9.738;2023-02-01T11:02:56;6.30;95.70
7606;DHT22;3844;53.360;9.738;2023-02-01T11:05:10;6.30;95.70
7606;DHT22;3844;53.360;9.738;2023-02-01T11:07:16;6.30;95.70
7606;DHT22;3844;53.360;9.738;2023-02-01T11:09:20;6.30;95.70
7606;DHT22;3844;53.360;9.738;2023-02-01T11:11:22;6.30;95.70
7606;DHT22;3844;53.360;9.738;2023-02-01T11:13:29;6.30;95.70
7606;DHT22;3844;53.360;9.738;2023-02-01T11:15:31;6.30;95.70
7606;DHT22;3844;53.360;9.738;2023-02-01T11:17:38;6.30;95.70
7606;DHT22;3844;53.360;9.738;2023-02-01T11:19:44;6.30;95.70
7606;DHT22;3844;53.360;9.738;2023-02-01T11:21:52;6.20;95.70
7606;DHT22;3844;53.360;9.738;2023-02-01T11:23:54;6.20;95.70
7606;DHT22;3844;53.360;9.738;2023-02-01T11:25:57;6.10;95.70
7606;DHT22;3844;53.360;9.738;2023-02-01T11:27:58;6.10;95.70
7606;DHT22;3844;53.360;9.738;2023-02-01T11:30:01;6.10;95.70
7606;DHT22;3844;53.360;9.738;2023-02-01T11:32:04;6.10;95.70
7606;DHT22;3844;53.360;9.738;2023-02-01T11:34:19;6.10;95.70
7606;DHT22;3844;53.360;9.738;2023-02-01T11:36:27;6.10;95.70
7606;DHT22;3844;53.360;9.738;2023-02-01T11:38:30;6.00;95.70
7606;DHT22;3844;53.360;9.738;2023-02-01T11:40:36;6.00;95.70
7606;DHT22;3844;53.360;9.738;2023-02-01T11:43:37;6.00;95.70
7606;DHT22;3844;53.360;9.738;2023-02-01T11:45:30;6.00;95.70
7606;DHT22;3844;53.360;9.738;2023-02-01T11:47:39;6.00;95.70
7606;DHT22;3844;53.360;9.738;2023-02-01T11:49:40;6.00;95.70
7606;DHT22;3844;53.360;9.738;2023-02-01T11:51:53;6.00;95.70
7606;DHT22;3844;53.360;9.738;2023-02-01T11:59:31;5.80;95.70
7606;DHT22;3844;53.360;9.738;2023-02-01T12:01:47;5.70;95.70
7606;DHT22;3844;53.360;9.738;2023-02-01T12:04:13;5.60;95.70
7606;DHT22;3844;53.360;9.738;2023-02-01T12:06:34;5.40;95.70
7606;DHT22;3844;53.360;9.738;2023-02-01T12:11:25;5.10;95.70
7606;DHT22;3844;53.360;9.738;2023-02-01T12:16:02;4.80;95.70
7606;DHT22;3844;53.360;9.738;2023-02-01T12:29:48;4.20;95.70
7606;DHT22;3844;53.360;9.738;2023-02-01T12:41:21;3.10;95.70
7606;DHT22;3844;53.360;9.738;2023-02-01T12:43:40;2.80;95.70
7606;DHT22;3844;53.360;9.738;2023-02-01T12:45:56;2.60;95.70
7606;DHT22;3844;53.360;9.738;2023-02-01T12:50:27;2.30;95.70
7606;DHT22;3844;53.360;9.738;2023-02-01T12:55:01;2.20;95.70
7606;DHT22;3844;53.360;9.738;2023-02-01T12:57:15;2.20;95.70
7606;DHT22;3844;53.360;9.738;2023-02-01T12:59:41;2.30;95.70
7606;DHT22;3844;53.360;9.738;2023-02-01T13:01:48;2.30;95.70
7606;DHT22;3844;53.360;9.738;2023-02-01T13:04:13;2.30;95.70
7606;DHT22;3844;53.360;9.738;2023-02-01T13:11:03;2.40;95.70
7606;DHT22;3844;53.360;9.738;2023-02-01T13:17:28;2.80;95.70
7606;DHT22;3844;53.360;9.738;2023-02-01T13:19:46;2.80;95.70
7606;DHT22;3844;53.360;9.738;2023-02-01T13:21:59;2.90;95.70
7606;DHT22;3844;53.360;9.738;2023-02-01T13:24:02;3.00;95.70
7606;DHT22;3844;53.360;9.738;2023-02-01T13:26:04;3.00;95.70
7606;DHT22;3844;53.360;9.738;2023-02-01T13:28:10;3.10;95.70
7606;DHT22;3844;53.360;9.738;2023-02-01T13:30:22;3.20;95.70
7606;DHT22;3844;53.360;9.738;2023-02-01T13:42:33;3.20;95.70
7606;DHT22;3844;53.360;9.738;2023-02-01T13:46:43;3.40;95.70
7606;DHT22;3844;53.360;9.738;2023-02-01T13:48:55;3.50;95.70
7606;DHT22;3844;53.360;9.738;2023-02-01T13:50:58;3.80;95.70
7606;DHT22;3844;53.360;9.738;2023-02-01T13:53:11;4.00;95.70
7606;DHT22;3844;53.360;9.738;2023-02-01T13:55:15;4.10;95.70
7606;DHT22;3844;53.360;9.738;2023-02-01T13:57:38;4.60;95.70
7606;DHT22;3844;53.360;9.738;2023-02-01T14:01:43;4.70;95.70
7606;DHT22;3844;53.360;9.738;2023-02-01T14:03:45;4.60;95.70
7606;DHT22;3844;53.360;9.738;2023-02-01T14:12:48;5.00;95.70
7606;DHT22;3844;53.360;9.738;2023-02-01T14:14:50;4.90;95.70
7606;DHT22;3844;53.360;9.738;2023-02-01T14:19:00;4.80;95.70
7606;DHT22;3844;53.360;9.738;2023-02-01T14:23:28;4.80;95.70
7606;DHT22;3844;53.360;9.738;2023-02-01T14:25:34;4.70;95.70
7606;DHT22;3844;53.360;9.738;2023-02-01T14:27:36;4.70;95.70
7606;DHT22;3844;53.360;9.738;2023-02-01T14:29:44;4.70;95.70
7606;DHT22;3844;53.360;9.738;2023-02-01T14:34:59;4.60;95.70
7606;DHT22;3844;53.360;9.738;2023-02-01T14:36:52;4.60;95.70
7606;DHT22;3844;53.360;9.738;2023-02-01T14:38:54;4.60;95.70
7606;DHT22;3844;53.360;9.738;2023-02-01T14:42:57;4.50;95.70
7606;DHT22;3844;53.360;9.738;2023-02-01T14:49:23;3.80;95.70
7606;DHT22;3844;53.360;9.738;2023-02-01T14:51:25;3.60;95.70
7606;DHT22;3844;53.360;9.738;2023-02-01T14:53:34;3.50;95.70
7606;DHT22;3844;53.360;9.738;2023-02-01T15:00:34;3.40;95.70
7606;DHT22;3844;53.360;9.738;2023-02-01T15:02:36;3.40;95.70
7606;DHT22;3844;53.360;9.738;2023-02-01T15:04:41;3.50;95.70
7606;DHT22;3844;53.360;9.738;2023-02-01T15:06:49;3.50;95.70
7606;DHT22;3844;53.360;9.738;2023-02-01T15:09:31;3.60;95.70
7606;DHT22;3844;53.360;9.738;2023-02-01T15:11:24;3.60;95.70
7606;DHT22;3844;53.360;9.738;2023-02-01T15:13:26;3.70;95.70
7606;DHT22;3844;53.360;9.738;2023-02-01T15:15:27;3.80;95.70
7606;DHT22;3844;53.360;9.738;2023-02-01T15:17:30;3.80;95.70
7606;DHT22;3844;53.360;9.738;2023-02-01T15:19:34;3.90;95.70
7606;DHT22;3844;53.360;9.738;2023-02-01T15:21:43;3.90;95.70
7606;DHT22;3844;53.360;9.738;2023-02-01T15:23:46;3.90;95.70
7606;DHT22;3844;53.360;9.738;2023-02-01T15:25:49;3.90;95.70
7606;DHT22;3844;53.360;9.738;2023-02-01T15:27:50;3.80;95.70
7606;DHT22;3844;53.360;9.738;2023-02-01T15:29:51;3.80;95.70
7606;DHT22;3844;53.360;9.738;2023-02-01T15:31:53;3.80;95.70
7606;DHT22;3844;53.360;9.738;2023-02-01T15:33:57;3.80;95.70
7606;DHT22;3844;53.360;9.738;2023-02-01T15:40:24;3.70;95.70
7606;DHT22;3844;53.360;9.738;2023-02-01T15:42:25;3.70;95.70
7606;DHT22;3844;53.360;9.738;2023-02-01T15:44:39;3.70;95.70
7606;DHT22;3844;53.360;9.738;2023-02-01T15:46:46;3.70;95.70
7606;DHT22;3844;53.360;9.738;2023-02-01T15:48:54;3.70;95.70
7606;DHT22;3844;53.360;9.738;2023-02-01T15:50:55;3.70;95.70
7606;DHT22;3844;53.360;9.738;2023-02-01T15:52:56;3.70;95.70
7606;DHT22;3844;53.360;9.738;2023-02-01T15:55:00;3.60;95.70
7606;DHT22;3844;53.360;9.738;2023-02-01T15:57:03;3.60;95.70
7606;DHT22;3844;53.360;9.738;2023-02-01T15:59:14;3.60;95.70
7606;DHT22;3844;53.360;9.738;2023-02-01T16:01:15;3.60;95.70
7606;DHT22;3844;53.360;9.738;2023-02-01T16:03:39;3.60;95.70
7606;DHT22;3844;53.360;9.738;2023-02-01T16:05:43;3.60;95.70
7606;DHT22;3844;53.360;9.738;2023-02-01T16:08:06;3.60;95.70
7606;DHT22;3844;53.360;9.738;2023-02-01T16:10:25;3.60;95.70
7606;DHT22;3844;53.360;9.738;2023-02-01T16:16:40;3.60;95.70
7606;DHT22;3844;53.360;9.738;2023-02-01T16:18:42;3.60;95.70
7606;DHT22;3844;53.360;9.738;2023-02-01T16:20:43;3.60;95.70
7606;DHT22;3844;53.360;9.738;2023-02-01T16:22:43;3.60;95.70
7606;DHT22;3844;53.360;9.738;2023-02-01T16:24:44;3.60;95.70